Time;durP1;ratioP1;P1;durP2;ratioP2;P2;SDS_P1;SDS_P2;PMS_P1;PMS_P2;Temp;Humidity;BMP_temperature;BMP_pressure;BME280_temperature;BME280_humidity;BME280_pressure;Samples;Min_cycle;Max_cycle;Signal;HPM_P1;HPM_P2
2021/08/20 00:00:27;;;;;;;7.15;4.40;;;;;;;14.17;70.57;97762.95;1740818;82;21024;-77
2021/08/20 00:02:56;;;;;;;6.75;4.33;;;;;;;14.13;72.48;97760.91;1719238;83;21008;-78
2021/08/20 00:05:22;;;;;;;8.65;4.10;;;;;;;14.08;72.28;97763.78;1719224;83;21052;-77
2021/08/20 00:07:48;;;;;;;5.95;4.10;;;;;;;14.04;70.86;97764.86;1731456;82;21000;-78
2021/08/20 00:10:16;;;;;;;6.45;4.10;;;;;;;14.04;70.72;97764.86;1753702;82;21454;-78
2021/08/20 00:12:43;;;;;;;6.37;3.77;;;;;;;14.00;70.66;97768.63;1753989;81;21397;-78
2021/08/20 00:15:10;;;;;;;8.85;4.12;;;;;;;13.95;70.83;97767.50;1724096;81;21009;-79
2021/08/20 00:17:36;;;;;;;5.92;3.60;;;;;;;13.88;70.79;97770.52;1720384;82;20977;-78
2021/08/20 00:20:05;;;;;;;5.80;3.80;;;;;;;13.83;70.96;97767.61;1720222;83;21095;-79
2021/08/20 00:22:31;;;;;;;7.03;3.92;;;;;;;13.85;70.91;97765.75;1719704;83;21076;-80
2021/08/20 00:24:58;;;;;;;5.90;3.98;;;;;;;13.90;70.91;97770.00;1719457;83;20996;-79
2021/08/20 00:27:25;;;;;;;7.00;3.98;;;;;;;13.88;71.58;97768.73;1719437;83;21454;-79
2021/08/20 00:29:51;;;;;;;8.15;3.80;;;;;;;13.88;72.25;97768.73;1730060;82;20965;-79
2021/08/20 00:32:18;;;;;;;6.15;3.30;;;;;;;13.85;72.26;97767.08;1753755;82;21382;-79
2021/08/20 00:34:45;;;;;;;5.95;3.72;;;;;;;13.86;72.60;97773.25;1753835;82;21417;-79
2021/08/20 00:37:13;;;;;;;4.42;3.30;;;;;;;13.91;72.63;97773.91;1753771;82;21044;-79
2021/08/20 00:39:40;;;;;;;6.75;3.58;;;;;;;13.92;72.43;97774.33;1753645;81;21079;-79
2021/08/20 00:42:09;;;;;;;8.28;3.58;;;;;;;13.98;72.62;97774.48;1752610;81;21024;-79
2021/08/20 00:44:35;;;;;;;7.70;4.00;;;;;;;13.95;72.92;97763.50;1737941;82;21063;-79
2021/08/20 00:47:02;;;;;;;5.10;3.77;;;;;;;13.93;72.75;97769.39;1719263;83;20969;-79
2021/08/20 00:49:30;;;;;;;4.12;3.12;;;;;;;13.91;72.72;97766.40;1719982;82;21056;-79
2021/08/20 00:51:57;;;;;;;5.67;3.65;;;;;;;13.85;72.87;97766.20;1720817;83;20987;-79
2021/08/20 00:54:24;;;;;;;7.03;4.05;;;;;;;13.87;72.67;97768.31;1720967;83;21019;-79
2021/08/20 00:56:51;;;;;;;7.05;4.00;;;;;;;13.90;72.34;97763.34;1720820;83;21099;-79
2021/08/20 00:59:17;;;;;;;6.05;3.85;;;;;;;13.89;72.24;97761.59;1722783;82;21016;-79
2021/08/20 01:01:44;;;;;;;6.00;3.77;;;;;;;13.86;72.07;97764.80;1720085;83;21413;-79
2021/08/20 01:04:12;;;;;;;6.08;3.62;;;;;;;13.81;72.00;97764.62;1719279;83;21005;-79
2021/08/20 01:06:40;;;;;;;5.35;3.75;;;;;;;13.73;71.87;97764.52;1719160;83;20973;-79
2021/08/20 01:09:09;;;;;;;6.80;4.62;;;;;;;13.70;71.84;97775.30;1717454;82;21040;-78
2021/08/20 01:11:37;;;;;;;6.45;3.67;;;;;;;13.62;71.85;97772.11;1708741;83;21085;-79
2021/08/20 01:14:07;;;;;;;5.75;3.90;;;;;;;13.58;72.35;97776.72;1708007;83;20950;-79
2021/08/20 01:16:34;;;;;;;5.75;3.70;;;;;;;13.56;72.05;97774.61;1708488;83;20985;-79
2021/08/20 01:19:01;;;;;;;6.35;4.37;;;;;;;13.54;72.87;97782.27;1709539;84;21044;-79
2021/08/20 01:21:28;;;;;;;5.58;4.00;;;;;;;13.48;72.85;97779.86;1707999;84;20989;-79
2021/08/20 01:23:58;;;;;;;8.53;4.00;;;;;;;13.44;72.26;97772.45;1708002;84;21027;-78
2021/08/20 01:26:27;;;;;;;5.78;4.15;;;;;;;13.39;72.22;97777.13;1710351;83;21067;-78
2021/08/20 01:28:55;;;;;;;6.28;4.15;;;;;;;13.39;72.36;97771.34;1726923;83;20973;-78
2021/08/20 01:31:22;;;;;;;7.35;4.22;;;;;;;13.39;72.71;97778.45;1727052;83;21036;-78
2021/08/20 01:33:48;;;;;;;6.70;3.55;;;;;;;13.39;72.56;97774.01;1718903;83;21088;-79
2021/08/20 01:36:16;;;;;;;10.43;3.98;;;;;;;13.39;72.98;97766.02;1692841;85;21005;-78
2021/08/20 01:38:56;;;;;;;6.17;3.98;;;;;;;13.39;72.58;97769.14;1693233;83;21293;-78
2021/08/20 01:41:26;;;;;;;6.60;3.77;;;;;;;13.38;72.48;97770.08;1693445;85;21489;-78
2021/08/20 01:43:54;;;;;;;7.53;4.30;;;;;;;13.38;72.31;97773.61;1693812;85;21077;-79
2021/08/20 01:46:22;;;;;;;6.37;3.75;;;;;;;13.41;72.60;97778.78;1693532;85;21454;-78
2021/08/20 01:48:56;;;;;;;6.95;3.90;;;;;;;13.42;72.47;97772.52;1693604;85;21629;-78
2021/08/20 01:51:25;;;;;;;5.90;3.98;;;;;;;13.38;72.80;97773.61;1708858;83;20974;-79
2021/08/20 01:53:54;;;;;;;9.05;4.05;;;;;;;13.38;72.48;97768.29;1727076;83;21416;-79
2021/08/20 01:56:24;;;;;;;5.15;3.50;;;;;;;13.41;72.44;97769.95;1724349;83;21033;-79
2021/08/20 01:58:52;;;;;;;6.92;4.22;;;;;;;13.42;72.33;97761.88;1706851;83;21032;-79
2021/08/20 02:01:19;;;;;;;6.50;4.03;;;;;;;13.40;72.14;97763.75;1694336;84;20997;-79
2021/08/20 02:03:46;;;;;;;6.45;3.70;;;;;;;13.40;72.15;97772.19;1699568;83;20982;-79
2021/08/20 02:06:15;;;;;;;5.45;3.22;;;;;;;13.37;72.51;97765.20;1683959;84;21426;-79
2021/08/20 02:08:43;;;;;;;5.72;3.95;;;;;;;13.37;72.76;97763.88;1708739;84;20997;-79
2021/08/20 02:11:10;;;;;;;5.55;3.67;;;;;;;13.37;72.39;97768.36;1709322;83;20980;-79
2021/08/20 02:13:39;;;;;;;4.70;3.40;;;;;;;13.34;72.26;97771.53;1709420;84;21059;-79
2021/08/20 02:16:06;;;;;;;6.45;3.77;;;;;;;13.32;72.93;97762.77;1733556;81;21018;-79
2021/08/20 02:18:35;;;;;;;5.00;3.83;;;;;;;13.30;72.75;97763.31;1739411;82;21467;-79
2021/08/20 02:21:02;;;;;;;6.40;3.77;;;;;;;13.27;72.88;97760.77;1739560;82;21022;-79
2021/08/20 02:23:31;;;;;;;6.70;3.67;;;;;;;13.26;73.08;97763.05;1719370;82;20980;-79
2021/08/20 02:25:58;;;;;;;4.53;3.12;;;;;;;13.28;73.08;97763.83;1738670;82;21015;-78
2021/08/20 02:28:25;;;;;;;4.35;3.17;;;;;;;13.29;72.98;97761.56;1738179;82;21012;-78
2021/08/20 02:30:53;;;;;;;5.87;3.75;;;;;;;13.32;73.07;97756.56;1738056;82;21123;-78
2021/08/20 02:33:20;;;;;;;5.35;3.25;;;;;;;13.27;73.31;97758.11;1708644;83;21624;-78
2021/08/20 02:35:46;;;;;;;4.58;3.10;;;;;;;13.26;73.29;97759.51;1678331;85;21015;-78
2021/08/20 02:38:13;;;;;;;6.72;3.67;;;;;;;13.23;73.37;97760.96;1678263;85;21055;-78
2021/08/20 02:40:39;;;;;;;6.05;4.03;;;;;;;13.22;73.31;97757.45;1678169;85;20991;-78
2021/08/20 02:43:05;;;;;;;5.70;3.77;;;;;;;13.19;72.87;97765.11;1651629;86;21015;-78
2021/08/20 02:45:33;;;;;;;4.72;3.47;;;;;;;13.16;73.08;97767.05;1709329;82;21047;-78
2021/08/20 02:48:01;;;;;;;5.65;3.60;;;;;;;13.13;73.12;97765.84;1709210;84;21048;-78
2021/08/20 02:50:29;;;;;;;5.53;3.60;;;;;;;13.07;73.05;97767.84;1698018;84;21020;-78
2021/08/20 02:52:56;;;;;;;7.22;4.15;;;;;;;13.06;72.60;97769.23;1701100;82;21380;-78
2021/08/20 02:55:24;;;;;;;5.78;3.60;;;;;;;13.04;72.52;97777.75;1739535;82;21018;-78
2021/08/20 02:57:50;;;;;;;6.40;4.10;;;;;;;12.96;72.24;97774.09;1739411;82;21022;-78
2021/08/20 03:00:17;;;;;;;5.45;3.95;;;;;;;12.87;72.31;97774.00;1720553;82;20980;-78
2021/08/20 03:02:43;;;;;;;7.47;4.00;;;;;;;12.78;72.40;97777.92;1706623;82;20994;-78
2021/08/20 03:05:10;;;;;;;5.65;3.80;;;;;;;12.70;72.63;97777.38;1711494;82;21043;-79
2021/08/20 03:07:37;;;;;;;9.50;4.20;;;;;;;12.63;73.01;97779.42;1709277;84;21414;-79
2021/08/20 03:10:05;;;;;;;6.47;3.98;;;;;;;12.58;72.77;97777.42;1714471;83;21025;-78
2021/08/20 03:12:32;;;;;;;6.05;4.28;;;;;;;12.56;73.10;97781.06;1722064;83;20977;-78
2021/08/20 03:14:58;;;;;;;5.80;3.95;;;;;;;12.50;74.61;97780.39;1717812;82;20988;-79
2021/08/20 03:17:27;;;;;;;8.05;3.92;;;;;;;12.47;73.39;97781.87;1704087;83;21548;-79
2021/08/20 03:19:53;;;;;;;5.72;3.42;;;;;;;12.46;73.66;97790.74;1724453;82;21382;-78
2021/08/20 03:22:20;;;;;;;7.17;4.12;;;;;;;12.43;73.59;97784.24;1725215;82;21010;-78
2021/08/20 03:24:47;;;;;;;8.23;3.52;;;;;;;12.36;73.54;97781.41;1739902;81;21013;-78
2021/08/20 03:27:13;;;;;;;6.70;4.17;;;;;;;12.28;74.00;97787.92;1733471;82;21001;-78
2021/08/20 03:29:41;;;;;;;6.58;3.45;;;;;;;12.26;73.93;97783.59;1722070;82;21004;-78
2021/08/20 03:32:12;;;;;;;5.15;4.12;;;;;;;12.23;73.68;97787.69;1722104;83;21076;-78
2021/08/20 03:34:39;;;;;;;6.28;3.60;;;;;;;12.18;75.72;97790.54;1722185;83;21036;-77
2021/08/20 03:37:06;;;;;;;9.40;4.22;;;;;;;12.16;74.38;97798.17;1719913;83;20997;-77
2021/08/20 03:39:34;;;;;;;6.17;3.92;;;;;;;12.15;74.54;97793.30;1708690;82;20992;-77
2021/08/20 03:42:01;;;;;;;11.50;3.98;;;;;;;12.16;74.82;97791.53;1724360;83;21047;-78
2021/08/20 03:44:29;;;;;;;6.67;4.28;;;;;;;12.15;74.56;97799.95;1723664;83;20989;-83
2021/08/20 03:46:56;;;;;;;8.70;4.25;;;;;;;12.13;74.62;97796.02;1723264;83;21076;-90
2021/08/20 03:49:23;;;;;;;6.72;3.95;;;;;;;12.11;74.34;97801.87;1721336;83;21017;-89
2021/08/20 03:51:52;;;;;;;6.25;4.03;;;;;;;12.08;75.11;97793.16;1722225;83;21407;-88
2021/08/20 03:54:23;;;;;;;6.33;3.83;;;;;;;12.08;74.75;97791.83;1721843;83;21462;-88
2021/08/20 03:56:50;;;;;;;8.00;3.90;;;;;;;12.06;75.21;97787.91;1721312;83;20992;-86
2021/08/20 03:59:21;;;;;;;6.75;3.95;;;;;;;12.03;76.24;97797.27;1720735;82;21390;-88
2021/08/20 04:01:48;;;;;;;6.70;3.83;;;;;;;11.98;76.70;97793.48;1722054;83;21045;-90
2021/08/20 04:04:16;;;;;;;7.55;3.80;;;;;;;12.00;75.87;97798.26;1722184;83;20976;-89
2021/08/20 04:06:56;;;;;;;6.62;3.58;;;;;;;12.03;76.72;97795.09;1707712;84;21024;-89
2021/08/20 04:09:24;;;;;;;8.25;4.45;;;;;;;12.03;76.24;97792.44;1723544;82;20989;-88
2021/08/20 04:12:08;;;;;;;7.67;4.17;;;;;;;12.04;76.54;97788.38;1751725;81;20979;-89
2021/08/20 04:14:42;;;;;;;8.70;3.60;;;;;;;12.07;76.66;97787.42;1754563;81;21366;-89
2021/08/20 04:17:09;;;;;;;9.10;4.10;;;;;;;12.11;77.12;97791.69;1738597;81;21004;-89
2021/08/20 04:19:37;;;;;;;6.53;3.98;;;;;;;12.12;77.11;97799.61;1738216;82;21391;-89
2021/08/20 04:22:04;;;;;;;5.22;3.72;;;;;;;12.18;76.62;97793.20;1738800;81;21063;-89
2021/08/20 04:24:31;;;;;;;5.85;3.62;;;;;;;12.25;76.66;97796.48;1739775;82;21082;-88
2021/08/20 04:26:59;;;;;;;5.50;3.47;;;;;;;12.27;76.44;97795.50;1736748;82;20984;-88
2021/08/20 04:29:45;;;;;;;9.35;3.77;;;;;;;12.27;76.22;97794.62;1737037;81;21038;-87
2021/08/20 04:32:14;;;;;;;5.35;3.30;;;;;;;12.25;76.14;97799.98;1725871;82;21039;-87
2021/08/20 04:34:45;;;;;;;8.10;4.33;;;;;;;12.27;75.75;97798.16;1728188;82;21567;-88
2021/08/20 04:37:22;;;;;;;10.05;4.00;;;;;;;12.23;75.79;97795.20;1737328;82;21020;-87
2021/08/20 04:39:55;;;;;;;6.28;3.83;;;;;;;12.20;76.08;97799.78;1738331;81;20995;-87
2021/08/20 04:42:26;;;;;;;6.40;4.00;;;;;;;12.17;75.63;97798.11;1669014;82;21059;-88
2021/08/20 04:44:55;;;;;;;6.37;3.90;;;;;;;12.09;76.65;97790.42;1683306;82;20999;-87
2021/08/20 04:47:29;;;;;;;6.42;4.03;;;;;;;12.09;76.39;97797.06;1689599;82;21044;-88
2021/08/20 04:49:58;;;;;;;8.28;4.45;;;;;;;12.11;75.98;97796.55;1735684;82;20968;-88
2021/08/20 04:52:43;;;;;;;6.37;3.80;;;;;;;12.13;75.90;97798.67;1739599;81;21015;-86
2021/08/20 04:55:24;;;;;;;7.87;4.45;;;;;;;12.16;75.95;97790.20;1691325;82;20984;-86
2021/08/20 04:57:51;;;;;;;9.60;4.78;;;;;;;12.21;75.74;97786.90;1768090;81;21015;-92
2021/08/20 05:00:17;;;;;;;5.42;4.22;;;;;;;12.25;75.44;97794.67;1750318;81;20972;-89
2021/08/20 05:02:44;;;;;;;10.32;6.08;;;;;;;12.32;75.75;97793.09;1763034;81;21047;-90
2021/08/20 05:05:11;;;;;;;19.37;12.18;;;;;;;12.34;75.93;97796.09;1746360;81;21445;-92
2021/08/20 05:07:38;;;;;;;8.30;5.17;;;;;;;12.38;76.54;97795.53;1739961;82;20988;-93
2021/08/20 05:10:09;;;;;;;6.33;4.28;;;;;;;12.43;76.66;97797.53;1736571;82;21056;-93
2021/08/20 05:12:35;;;;;;;10.75;4.55;;;;;;;12.49;76.03;97795.06;1707408;82;21047;-93
2021/08/20 05:15:01;;;;;;;8.20;5.25;;;;;;;12.51;75.45;97796.73;1706003;84;21493;-89
2021/08/20 05:17:27;;;;;;;6.50;4.30;;;;;;;12.56;75.97;97801.00;1708982;82;21042;-87
2021/08/20 05:19:54;;;;;;;7.40;4.42;;;;;;;12.61;75.91;97803.01;1706691;84;21019;-89
2021/08/20 05:22:20;;;;;;;9.28;4.70;;;;;;;12.68;75.73;97808.01;1729369;82;20990;-85
2021/08/20 05:24:46;;;;;;;7.40;4.42;;;;;;;12.76;75.95;97813.04;1734332;82;21512;-84
2021/08/20 05:27:13;;;;;;;6.87;4.15;;;;;;;12.84;75.52;97805.19;1705027;84;20999;-88
2021/08/20 05:29:39;;;;;;;7.08;4.85;;;;;;;12.91;75.42;97810.19;1728084;82;20972;-89
2021/08/20 05:32:06;;;;;;;7.60;4.55;;;;;;;12.98;75.59;97811.25;1711331;82;20994;-89
2021/08/20 05:34:33;;;;;;;7.75;4.40;;;;;;;13.06;74.90;97805.14;1705673;84;21044;-90
2021/08/20 05:36:59;;;;;;;7.58;4.67;;;;;;;13.15;74.76;97808.74;1706617;82;20966;-88
2021/08/20 05:39:26;;;;;;;7.97;4.40;;;;;;;13.21;74.78;97810.28;1706469;84;21468;-89
2021/08/20 05:41:52;;;;;;;10.05;4.80;;;;;;;13.29;74.41;97811.28;1706593;84;21419;-90
2021/08/20 05:44:19;;;;;;;10.78;4.30;;;;;;;13.37;74.33;97810.45;1705438;82;20999;-88
2021/08/20 05:46:45;;;;;;;8.83;4.25;;;;;;;13.44;74.07;97815.92;1710218;82;21026;-85
2021/08/20 05:49:11;;;;;;;7.30;4.28;;;;;;;13.51;73.77;97817.89;1705682;84;21062;-89
2021/08/20 05:51:38;;;;;;;8.55;4.22;;;;;;;13.57;73.75;97813.61;1706673;84;20987;-88
2021/08/20 05:54:04;;;;;;;7.70;4.22;;;;;;;13.67;73.60;97811.87;1715489;82;21697;-92
2021/08/20 05:56:32;;;;;;;6.05;4.30;;;;;;;13.75;73.35;97814.18;1726689;82;21041;-85
2021/08/20 05:58:59;;;;;;;7.05;4.53;;;;;;;13.81;73.20;97811.23;1720577;81;20971;-85
2021/08/20 06:01:25;;;;;;;7.87;5.22;;;;;;;13.89;73.19;97809.54;1706662;84;21085;-89
2021/08/20 06:03:52;;;;;;;11.65;4.45;;;;;;;13.96;73.15;97813.17;1631929;87;21435;-87
2021/08/20 06:06:20;;;;;;;9.05;4.20;;;;;;;14.04;72.78;97811.98;1687928;85;21058;-90
2021/08/20 06:08:47;;;;;;;11.57;4.17;;;;;;;14.13;72.58;97819.05;1676714;85;21030;-90
2021/08/20 06:11:13;;;;;;;7.22;4.20;;;;;;;14.20;72.32;97812.13;1684011;83;21031;-90
2021/08/20 06:13:40;;;;;;;8.20;4.30;;;;;;;14.29;72.25;97812.14;1725441;83;21036;-89
2021/08/20 06:16:06;;;;;;;7.08;3.77;;;;;;;14.39;72.00;97824.97;1700921;84;21005;-90
2021/08/20 06:18:35;;;;;;;10.65;4.60;;;;;;;14.48;71.81;97826.32;1664292;84;21041;-90
2021/08/20 06:21:01;;;;;;;11.25;3.90;;;;;;;14.59;71.71;97832.48;1701096;84;21061;-90
2021/08/20 06:23:28;;;;;;;9.40;4.33;;;;;;;14.68;71.00;97827.16;1701354;84;21024;-88
2021/08/20 06:25:55;;;;;;;10.93;4.35;;;;;;;14.76;71.00;97829.02;1701403;84;21036;-89
2021/08/20 06:28:21;;;;;;;9.05;4.62;;;;;;;14.85;70.49;97829.02;1701278;83;21059;-88
2021/08/20 06:30:48;;;;;;;9.55;4.67;;;;;;;14.94;70.58;97829.02;1702521;84;21059;-87
2021/08/20 06:33:14;;;;;;;9.60;4.33;;;;;;;15.04;70.44;97828.10;1702808;84;21001;-87
2021/08/20 06:35:42;;;;;;;8.73;4.42;;;;;;;15.13;69.61;97830.31;1719695;83;21012;-89
2021/08/20 06:38:08;;;;;;;9.40;4.37;;;;;;;15.23;69.42;97836.52;1703709;83;21001;-87
2021/08/20 06:40:35;;;;;;;9.33;4.50;;;;;;;15.33;69.22;97836.89;1704345;83;21108;-86
2021/08/20 06:43:02;;;;;;;9.00;4.22;;;;;;;15.41;69.20;97834.20;1700421;84;20984;-88
2021/08/20 06:45:29;;;;;;;7.80;3.90;;;;;;;15.50;68.37;97828.87;1699738;84;21009;-88
2021/08/20 06:47:56;;;;;;;7.28;3.77;;;;;;;15.59;66.78;97831.52;1701788;83;21008;-87
2021/08/20 06:50:22;;;;;;;10.25;3.90;;;;;;;15.70;67.77;97829.14;1704630;83;21028;-88
2021/08/20 06:52:49;;;;;;;5.53;3.50;;;;;;;15.80;67.65;97827.31;1700223;84;20949;-88
2021/08/20 06:55:16;;;;;;;6.58;3.90;;;;;;;15.89;67.38;97832.16;1699784;84;21044;-88
2021/08/20 06:57:43;;;;;;;10.55;5.80;;;;;;;15.97;66.61;97826.44;1699775;84;21479;-89
2021/08/20 07:00:17;;;;;;;9.68;5.25;;;;;;;16.07;66.94;97829.48;1673993;83;21016;-88
2021/08/20 07:02:46;;;;;;;9.95;6.37;;;;;;;16.20;67.10;97824.31;1667890;84;20995;-87
2021/08/20 07:05:15;;;;;;;10.85;5.55;;;;;;;16.30;66.75;97831.34;1700458;84;21087;-89
2021/08/20 07:07:43;;;;;;;13.45;6.28;;;;;;;16.39;66.58;97824.14;1693514;84;21099;-87
2021/08/20 07:10:13;;;;;;;10.85;7.03;;;;;;;16.50;66.30;97824.39;1676582;83;21027;-87
2021/08/20 07:12:41;;;;;;;12.80;6.47;;;;;;;16.61;65.92;97830.97;1711408;83;21006;-89
2021/08/20 07:15:10;;;;;;;10.75;6.33;;;;;;;16.70;64.85;97825.06;1694839;84;21020;-89
2021/08/20 07:17:38;;;;;;;13.98;6.95;;;;;;;16.77;64.64;97825.58;1696063;85;21511;-89
2021/08/20 07:20:07;;;;;;;7.30;5.30;;;;;;;16.86;64.32;97829.55;1743206;82;20942;-89
2021/08/20 07:22:34;;;;;;;9.75;6.20;;;;;;;16.96;64.72;97827.19;1750733;82;21057;-89
2021/08/20 07:25:01;;;;;;;10.28;5.78;;;;;;;17.05;64.18;97832.03;1730448;82;21024;-88
2021/08/20 07:27:27;;;;;;;7.58;4.95;;;;;;;17.13;64.15;97827.09;1708650;84;20985;-88
2021/08/20 07:29:54;;;;;;;10.53;5.28;;;;;;;17.21;63.29;97829.32;1737654;82;21016;-89
2021/08/20 07:32:20;;;;;;;9.28;5.22;;;;;;;17.26;63.15;97824.55;1750771;82;21430;-87
2021/08/20 07:34:47;;;;;;;10.20;4.53;;;;;;;17.35;62.95;97826.30;1732752;82;20972;-87
2021/08/20 07:37:14;;;;;;;9.65;4.30;;;;;;;17.44;61.88;97828.89;1722427;83;21145;-90
2021/08/20 07:39:41;;;;;;;9.53;4.65;;;;;;;17.53;62.49;97832.36;1697016;83;20977;-88
2021/08/20 07:42:07;;;;;;;8.88;4.30;;;;;;;17.61;61.74;97827.37;1698909;82;20990;-87
2021/08/20 07:44:34;;;;;;;11.93;4.92;;;;;;;17.68;61.70;97831.88;1716519;82;20992;-87
2021/08/20 07:47:01;;;;;;;4.75;3.40;;;;;;;17.77;60.91;97835.83;1728289;82;21016;-87
2021/08/20 07:49:29;;;;;;;5.97;4.33;;;;;;;17.86;60.96;97829.03;1728940;82;21152;-87
2021/08/20 07:51:57;;;;;;;8.98;4.25;;;;;;;17.94;59.46;97832.95;1707836;83;21509;-87
2021/08/20 07:54:25;;;;;;;6.00;4.33;;;;;;;18.03;58.73;97840.88;1767630;80;21011;-89
2021/08/20 07:56:51;;;;;;;6.78;4.10;;;;;;;18.13;59.54;97833.63;1770468;80;20920;-90
2021/08/20 07:59:18;;;;;;;9.05;4.20;;;;;;;18.20;59.47;97837.67;1766226;80;20912;-89
2021/08/20 08:01:45;;;;;;;8.53;4.25;;;;;;;18.31;58.69;97831.63;1775044;80;21024;-90
2021/08/20 08:04:12;;;;;;;6.62;3.98;;;;;;;18.40;58.36;97828.83;1771237;80;20976;-89
2021/08/20 08:06:39;;;;;;;9.03;4.33;;;;;;;18.49;58.91;97827.36;1774231;80;20973;-88
2021/08/20 08:09:07;;;;;;;6.65;4.20;;;;;;;18.57;57.61;97821.86;1766421;80;20964;-88
2021/08/20 08:11:33;;;;;;;5.97;3.70;;;;;;;18.67;57.53;97818.58;1778416;80;21036;-89
2021/08/20 08:14:08;;;;;;;7.47;3.85;;;;;;;18.76;57.84;97823.84;1768345;81;20983;-86
2021/08/20 08:16:38;;;;;;;8.38;4.72;;;;;;;18.82;55.34;97826.98;1718646;82;21038;-85
2021/08/20 08:19:06;;;;;;;9.18;3.83;;;;;;;18.89;56.28;97820.70;1745906;82;20972;-88
2021/08/20 08:21:35;;;;;;;6.03;3.58;;;;;;;18.95;56.55;97823.47;1747270;82;20960;-87
2021/08/20 08:24:01;;;;;;;7.50;3.92;;;;;;;19.05;55.71;97822.42;1752761;81;21031;-82
2021/08/20 08:26:28;;;;;;;5.78;3.40;;;;;;;19.12;55.34;97821.03;1755471;81;20969;-91
2021/08/20 08:28:55;;;;;;;7.35;3.52;;;;;;;19.19;55.85;97821.47;1753754;81;20991;-88
2021/08/20 08:31:24;;;;;;;5.47;3.80;;;;;;;19.27;55.66;97817.80;1748157;81;21007;-86
2021/08/20 08:33:51;;;;;;;6.03;3.47;;;;;;;19.34;55.16;97816.39;1755456;81;21008;-88
2021/08/20 08:36:18;;;;;;;8.28;4.28;;;;;;;19.42;54.59;97821.23;1758103;81;20956;-87
2021/08/20 08:38:45;;;;;;;6.35;3.67;;;;;;;19.52;53.44;97814.76;1750997;81;21445;-84
2021/08/20 08:41:12;;;;;;;7.47;3.62;;;;;;;19.60;54.78;97812.87;1721661;82;21695;-90
2021/08/20 08:43:41;;;;;;;7.28;3.47;;;;;;;19.69;54.06;97810.02;1746599;82;20988;-89
2021/08/20 08:46:10;;;;;;;9.10;4.03;;;;;;;19.76;54.29;97806.79;1765207;81;20960;-83
2021/08/20 08:48:41;;;;;;;6.30;3.70;;;;;;;19.86;54.09;97804.33;1755576;81;21000;-84
2021/08/20 08:51:09;;;;;;;10.00;4.15;;;;;;;19.95;53.31;97804.14;1744896;81;20938;-85
2021/08/20 08:53:37;;;;;;;7.28;3.72;;;;;;;20.03;52.37;97802.28;1745924;82;21007;-83
2021/08/20 08:56:04;;;;;;;10.13;3.87;;;;;;;20.13;52.15;97799.30;1745244;82;21054;-84
2021/08/20 08:58:31;;;;;;;5.47;3.35;;;;;;;20.26;52.47;97797.92;1746351;81;20979;-85
2021/08/20 09:00:57;;;;;;;6.95;3.85;;;;;;;20.34;51.08;97804.59;1747051;82;20999;-83
2021/08/20 09:03:28;;;;;;;6.42;3.50;;;;;;;20.44;52.00;97801.59;1746176;82;21023;-85
2021/08/20 09:05:58;;;;;;;6.90;3.50;;;;;;;20.50;51.83;97807.00;1745976;82;20972;-87
2021/08/20 09:08:27;;;;;;;6.62;3.67;;;;;;;20.55;50.73;97800.81;1721637;82;21046;-90
2021/08/20 09:11:02;;;;;;;5.20;3.85;;;;;;;20.65;50.59;97801.84;1747620;81;20983;-87
2021/08/20 09:13:30;;;;;;;7.45;3.22;;;;;;;20.77;49.69;97800.55;1737561;81;20994;-87
2021/08/20 09:16:10;;;;;;;5.28;3.80;;;;;;;20.88;51.12;97796.59;1758697;81;21117;-88
2021/08/20 09:18:38;;;;;;;5.35;3.12;;;;;;;20.94;50.99;97797.97;1758640;81;20992;-89
2021/08/20 09:21:05;;;;;;;4.00;3.02;;;;;;;21.01;50.88;97803.25;1746171;81;20968;-88
2021/08/20 09:23:32;;;;;;;5.20;3.15;;;;;;;21.09;49.67;97801.31;1749751;81;20998;-87
2021/08/20 09:26:01;;;;;;;3.80;3.30;;;;;;;21.17;48.83;97794.86;1744725;81;21067;-83
2021/08/20 09:28:33;;;;;;;4.78;3.08;;;;;;;21.29;49.26;97793.06;1759747;81;21024;-82
2021/08/20 09:31:09;;;;;;;4.37;3.12;;;;;;;21.40;49.12;97796.28;1752003;81;20952;-85
2021/08/20 09:33:44;;;;;;;5.80;3.47;;;;;;;21.51;46.56;97803.55;1740933;81;20984;-86
2021/08/20 09:36:15;;;;;;;6.50;3.60;;;;;;;21.59;47.20;97792.16;1720330;82;21001;-86
2021/08/20 09:38:46;;;;;;;4.08;2.80;;;;;;;21.68;47.52;97785.17;1745808;82;21020;-85
2021/08/20 09:41:16;;;;;;;5.33;3.55;;;;;;;21.75;47.44;97782.37;1734473;81;20976;-87
2021/08/20 09:43:46;;;;;;;7.85;4.28;;;;;;;21.85;47.66;97794.15;1747414;81;20960;-83
2021/08/20 09:46:17;;;;;;;8.43;4.67;;;;;;;21.89;47.32;97786.19;1746755;82;21405;-80
2021/08/20 09:48:57;;;;;;;6.92;3.35;;;;;;;21.95;47.07;97785.33;1747580;82;21003;-81
2021/08/20 09:51:45;;;;;;;7.00;4.08;;;;;;;22.02;47.31;97787.91;1763093;81;21039;-81
2021/08/20 09:54:22;;;;;;;5.55;3.83;;;;;;;22.14;47.84;97786.91;1761303;81;21020;-79
2021/08/20 09:56:50;;;;;;;6.37;3.80;;;;;;;22.21;47.12;97778.34;1756825;81;20920;-81
2021/08/20 09:59:17;;;;;;;5.95;3.62;;;;;;;22.25;46.80;97787.40;1755855;81;20996;-82
2021/08/20 10:01:46;;;;;;;6.37;3.70;;;;;;;22.32;46.76;97782.84;1757781;81;20932;-84
2021/08/20 10:04:18;;;;;;;7.87;4.25;;;;;;;22.44;46.67;97781.85;1752705;81;21374;-82
2021/08/20 10:06:47;;;;;;;6.83;3.95;;;;;;;22.59;46.65;97787.84;1760398;80;20996;-81
2021/08/20 10:09:17;;;;;;;6.58;3.83;;;;;;;22.70;45.86;97787.48;1755093;81;21433;-82
2021/08/20 10:11:52;;;;;;;4.83;3.60;;;;;;;22.78;46.75;97780.44;1754757;81;20960;-81
2021/08/20 10:14:23;;;;;;;7.00;3.83;;;;;;;22.92;46.78;97782.48;1740980;81;21022;-80
2021/08/20 10:16:50;;;;;;;7.08;4.10;;;;;;;22.96;44.90;97781.21;1734397;82;21034;-81
2021/08/20 10:19:17;;;;;;;6.92;3.85;;;;;;;23.02;45.78;97771.73;1735324;81;21054;-85
2021/08/20 10:21:44;;;;;;;4.92;4.00;;;;;;;23.08;44.19;97769.38;1737413;82;21375;-84
2021/08/20 10:24:15;;;;;;;19.17;16.85;;;;;;;23.11;43.01;97768.73;1737046;82;21031;-82
2021/08/20 10:26:49;;;;;;;8.33;6.78;;;;;;;23.21;44.43;97767.83;1726816;82;20991;-82
2021/08/20 10:29:26;;;;;;;8.68;5.42;;;;;;;23.33;45.00;97762.38;1732330;81;21106;-81
2021/08/20 10:31:53;;;;;;;4.28;3.55;;;;;;;23.48;45.29;97764.27;1731751;82;21398;-82
2021/08/20 10:34:37;;;;;;;5.72;3.77;;;;;;;23.60;44.36;97751.04;1731148;81;20995;-82
2021/08/20 10:37:14;;;;;;;8.25;4.15;;;;;;;23.70;44.60;97748.84;1748015;81;21024;-84
2021/08/20 10:39:45;;;;;;;5.55;3.65;;;;;;;23.86;43.50;97745.17;1740010;82;20987;-84
2021/08/20 10:42:18;;;;;;;6.25;4.05;;;;;;;24.12;43.93;97743.36;1733796;81;21000;-82
2021/08/20 10:44:51;;;;;;;13.43;8.55;;;;;;;24.51;44.61;97744.45;1736868;81;21007;-82
2021/08/20 10:47:25;;;;;;;5.60;3.45;;;;;;;25.55;44.32;97741.66;1742342;81;20932;-82
2021/08/20 10:50:07;;;;;;;5.17;3.72;;;;;;;26.91;38.36;97737.13;1750810;81;20987;-83
2021/08/20 10:52:42;;;;;;;4.10;3.30;;;;;;;28.18;38.42;97731.34;1755982;81;21056;-81
2021/08/20 10:55:14;;;;;;;4.65;3.72;;;;;;;29.38;31.89;97727.96;1732127;82;21443;-81
2021/08/20 10:57:47;;;;;;;6.80;3.45;;;;;;;30.03;31.20;97723.91;1718923;82;21018;-80
2021/08/20 11:00:23;;;;;;;;;;;;;;;30.25;30.63;97720.92;1732221;81;21038;-81
2021/08/20 11:02:53;;;;;;;4.83;3.45;;;;;;;30.40;31.30;97718.27;1726299;82;20331;-82
2021/08/20 11:05:40;;;;;;;4.95;3.40;;;;;;;30.41;33.11;97720.50;1709169;84;21056;-81
2021/08/20 11:08:32;;;;;;;7.70;3.83;;;;;;;30.41;32.04;97724.09;1723466;82;21393;-81
2021/08/20 11:11:00;;;;;;;5.10;3.35;;;;;;;31.31;32.47;97725.54;1737068;81;21480;-81
2021/08/20 11:13:29;;;;;;;4.75;3.20;;;;;;;31.80;29.63;97724.16;1758080;80;20967;-85
2021/08/20 11:15:55;;;;;;;3.42;3.12;;;;;;;32.15;29.46;97724.98;1755742;82;21062;-84
2021/08/20 11:18:47;;;;;;;4.30;3.40;;;;;;;32.97;28.67;97720.76;1756368;82;22040;-84
2021/08/20 11:21:46;;;;;;;4.78;3.30;;;;;;;33.69;26.36;97704.77;1699105;84;21407;-81
2021/08/20 11:24:21;;;;;;;4.42;3.30;;;;;;;34.27;26.06;97716.50;1661475;85;20997;-84
2021/08/20 11:26:48;;;;;;;6.03;3.15;;;;;;;33.72;24.37;97708.50;1667095;86;21051;-82
2021/08/20 11:29:16;;;;;;;7.30;3.40;;;;;;;32.81;26.77;97718.26;1718559;80;20972;-82
2021/08/20 11:31:44;;;;;;;5.30;3.08;;;;;;;32.25;28.73;97722.80;1768038;80;21369;-85
2021/08/20 11:34:11;;;;;;;4.97;3.25;;;;;;;32.01;28.17;97714.37;1776372;80;20956;-86
2021/08/20 11:36:43;;;;;;;4.55;3.87;;;;;;;31.82;28.45;97714.39;1762298;80;20992;-84
2021/08/20 11:39:10;;;;;;;7.00;3.85;;;;;;;31.19;29.63;97708.67;1692710;83;21041;-83